Spences Bridge, Canada
Current Conditions -  °F | °C
As of 10:04 PM on Thursday 27 Nov 2014 (Local Time) from CWLY Reporting Station
Moderate Rain Moderate Rain  
Wind Chill: 50°   Ceiling: 5000
Heat Index: 50°   Visibility: 3mi
Dew Point: 46°   Wind: 13mph
Humidity: 87%   Direction: 190°S
Pressure: 29.39"   Gusts: 26mph
Location:  50.42°N, 121.35°W
Report Text: CWLY 280604Z AUTO 19011G23KT 3SM RA BR OVC050 10/08 A2939 RMK SLP957 DENSITY ALT 800FT
Loading
Personal Weather Stations






























Interactive Weather Map New forecast layout! Learn more

10-Day Weather Forecast

Advertisements
Track Severe Weather on mobile